createdAt,value
2022-11-29T00:01:40.508Z,92.63
2022-11-29T00:04:09.297Z,92.95
2022-11-29T00:06:38.042Z,92.77
2022-11-29T00:09:09.349Z,92.72
2022-11-29T00:11:58.002Z,92.64
2022-11-29T00:14:28.255Z,92.61
2022-11-29T00:17:02.235Z,92.68
2022-11-29T00:19:33.630Z,93.02
2022-11-29T00:22:02.406Z,92.74
2022-11-29T00:24:32.677Z,92.78
2022-11-29T00:27:01.397Z,92.71
2022-11-29T00:29:30.399Z,92.80
2022-11-29T00:31:59.378Z,92.78
2022-11-29T00:34:27.735Z,92.69
2022-11-29T00:36:55.818Z,92.69
2022-11-29T00:39:24.046Z,92.80
2022-11-29T00:41:52.455Z,92.75
2022-11-29T00:44:20.894Z,92.75
2022-11-29T00:46:49.544Z,92.74
2022-11-29T00:49:18.047Z,92.73
2022-11-29T00:51:46.707Z,92.72
2022-11-29T00:54:15.016Z,92.80
2022-11-29T00:56:43.635Z,92.62
2022-11-29T00:59:11.848Z,92.64
2022-11-29T01:01:40.061Z,92.68
2022-11-29T01:04:08.473Z,92.53
2022-11-29T01:06:36.669Z,92.59
2022-11-29T01:09:06.058Z,92.45
2022-11-29T01:11:34.697Z,92.53
2022-11-29T01:14:04.288Z,92.59
2022-11-29T01:16:32.923Z,92.44
2022-11-29T01:19:01.288Z,92.47
2022-11-29T01:21:29.891Z,92.42
2022-11-29T01:23:57.903Z,92.32
2022-11-29T01:26:29.197Z,92.41
2022-11-29T01:28:59.129Z,92.53
2022-11-29T01:31:31.267Z,92.51
2022-11-29T01:34:01.610Z,92.59
2022-11-29T01:36:30.375Z,92.56
2022-11-29T01:39:03.500Z,92.64
2022-11-29T01:41:34.589Z,92.78
2022-11-29T01:44:11.793Z,92.62
2022-11-29T01:46:45.737Z,92.59
2022-11-29T01:49:32.309Z,92.49
2022-11-29T01:52:08.216Z,92.69
2022-11-29T01:54:43.882Z,92.43
2022-11-29T01:57:13.177Z,92.61
2022-11-29T01:59:44.661Z,92.68
2022-11-29T02:02:20.294Z,92.69
2022-11-29T02:04:50.129Z,92.67
2022-11-29T02:07:18.284Z,92.62
2022-11-29T02:09:46.434Z,92.69
2022-11-29T02:12:28.878Z,92.41
2022-11-29T02:15:15.442Z,92.47
2022-11-29T02:18:08.551Z,92.44
2022-11-29T02:21:08.620Z,92.49
2022-11-29T02:23:53.475Z,92.40
2022-11-29T02:26:39.937Z,92.52
2022-11-29T02:29:10.783Z,92.78
2022-11-29T02:31:51.080Z,92.95
2022-11-29T02:34:44.219Z,92.59
2022-11-29T02:37:28.768Z,92.65
2022-11-29T02:40:28.230Z,92.60
2022-11-29T02:43:25.225Z,92.95
2022-11-29T02:46:05.612Z,92.73
2022-11-29T02:48:42.707Z,92.72
2022-11-29T02:51:16.781Z,92.74
2022-11-29T02:54:00.187Z,92.56
2022-11-29T02:56:53.317Z,92.79
2022-11-29T02:59:40.272Z,92.68
2022-11-29T03:02:29.816Z,92.37
2022-11-29T03:05:18.743Z,92.53
2022-11-29T03:08:11.114Z,92.53
2022-11-29T03:10:46.356Z,92.53
2022-11-29T03:13:25.220Z,92.78
2022-11-29T03:16:02.928Z,92.81
2022-11-29T03:18:58.880Z,92.83
2022-11-29T03:21:40.551Z,92.68
2022-11-29T03:24:44.406Z,92.46
2022-11-29T03:27:19.430Z,92.46
2022-11-29T03:29:56.953Z,92.36
2022-11-29T03:32:48.436Z,92.47
2022-11-29T03:35:40.990Z,92.50
2022-11-29T03:38:21.270Z,92.29
2022-11-29T03:40:59.962Z,92.30
2022-11-29T03:43:50.500Z,92.17
2022-11-29T03:46:33.300Z,92.44
2022-11-29T03:49:13.655Z,92.23
2022-11-29T03:51:52.153Z,92.10
2022-11-29T03:54:26.631Z,92.26
2022-11-29T03:56:55.104Z,92.02
2022-11-29T03:59:32.278Z,92.44
2022-11-29T04:02:21.918Z,92.28
2022-11-29T04:04:56.319Z,92.38
2022-11-29T04:07:30.472Z,92.15
2022-11-29T04:10:20.576Z,92.14
2022-11-29T04:13:15.730Z,91.89
2022-11-29T04:16:23.572Z,92.12
2022-11-29T04:19:16.915Z,92.18
2022-11-29T04:21:59.897Z,91.98
2022-11-29T04:24:34.036Z,92.19
2022-11-29T04:27:36.450Z,92.12
2022-11-29T04:30:08.633Z,92.50
2022-11-29T04:33:13.767Z,92.41
2022-11-29T04:36:07.306Z,92.28
2022-11-29T04:39:06.507Z,92.58
2022-11-29T04:41:47.126Z,92.06
2022-11-29T04:44:41.327Z,92.57
2022-11-29T04:47:47.992Z,92.59
2022-11-29T04:50:25.108Z,92.40
2022-11-29T04:53:29.859Z,92.77
2022-11-29T04:56:31.338Z,92.67
2022-11-29T04:59:07.891Z,92.53
2022-11-29T05:01:42.751Z,92.92
2022-11-29T05:04:21.160Z,93.07
2022-11-29T05:07:12.299Z,92.63
2022-11-29T05:10:06.417Z,92.66
2022-11-29T05:15:43.395Z,92.50
2022-11-29T05:18:21.593Z,92.90
2022-11-29T05:21:09.384Z,92.88
2022-11-29T05:23:53.754Z,92.92
2022-11-29T05:26:32.224Z,93.32
2022-11-29T05:29:15.343Z,93.15
2022-11-29T05:32:20.603Z,93.41
2022-11-29T05:35:18.039Z,93.16
2022-11-29T05:38:09.098Z,93.47
2022-11-29T05:40:44.871Z,93.35
2022-11-29T05:43:22.848Z,93.28
2022-11-29T05:46:33.469Z,93.42
2022-11-29T05:49:23.922Z,93.21
2022-11-29T05:52:04.314Z,93.19
2022-11-29T05:54:40.295Z,93.06
2022-11-29T05:57:49.635Z,93.24
2022-11-29T06:00:19.183Z,93.08
2022-11-29T06:02:58.813Z,93.66
2022-11-29T06:05:46.275Z,93.22
2022-11-29T06:08:17.709Z,93.68
2022-11-29T06:11:00.540Z,93.12
2022-11-29T06:13:50.132Z,93.21
2022-11-29T06:16:34.796Z,93.41
2022-11-29T06:19:23.212Z,93.45
2022-11-29T06:21:56.049Z,93.37
2022-11-29T06:24:29.302Z,93.16
2022-11-29T06:27:28.884Z,93.12
2022-11-29T06:30:08.699Z,92.90
2022-11-29T06:32:47.364Z,93.11
2022-11-29T06:35:45.292Z,93.22
2022-11-29T06:38:41.849Z,93.02
2022-11-29T06:41:16.465Z,93.22
2022-11-29T06:43:43.510Z,93.55
2022-11-29T06:46:36.322Z,93.42
2022-11-29T06:49:13.028Z,93.71
2022-11-29T06:51:51.684Z,93.45
2022-11-29T06:54:50.647Z,93.62
2022-11-29T06:57:45.516Z,93.21
2022-11-29T07:00:57.339Z,93.20
2022-11-29T07:03:38.948Z,93.28
2022-11-29T07:06:22.091Z,93.72
2022-11-29T07:08:56.102Z,93.65
2022-11-29T07:11:23.765Z,93.56
2022-11-29T07:13:50.714Z,93.83
2022-11-29T07:16:27.270Z,93.70
2022-11-29T07:19:02.341Z,93.64
2022-11-29T07:21:54.874Z,93.81
2022-11-29T07:24:54.051Z,93.72
2022-11-29T07:27:50.086Z,93.56
2022-11-29T07:30:21.023Z,93.60
2022-11-29T07:33:02.326Z,93.58
2022-11-29T07:35:58.386Z,93.50
2022-11-29T07:38:37.358Z,93.68
2022-11-29T07:41:19.824Z,93.85
2022-11-29T07:43:58.612Z,94.01
2022-11-29T07:46:25.479Z,93.93
2022-11-29T07:48:52.302Z,93.88
2022-11-29T07:51:19.105Z,94.00
2022-11-29T07:53:46.186Z,93.84
2022-11-29T07:56:14.356Z,93.80
2022-11-29T07:58:41.726Z,94.03
2022-11-29T08:01:08.530Z,93.99
2022-11-29T08:03:35.476Z,94.22
2022-11-29T08:06:25.123Z,94.05
2022-11-29T08:08:52.190Z,94.21
2022-11-29T08:11:19.038Z,94.28
2022-11-29T08:13:45.739Z,94.25
2022-11-29T08:16:18.934Z,94.51
2022-11-29T08:18:45.757Z,94.52
2022-11-29T08:21:17.374Z,94.58
2022-11-29T08:23:45.203Z,94.43
2022-11-29T08:26:12.618Z,94.34
2022-11-29T08:28:39.611Z,94.36
2022-11-29T08:31:08.957Z,94.31
2022-11-29T08:33:41.779Z,94.56
2022-11-29T08:36:11.711Z,95.09
2022-11-29T08:38:38.673Z,94.46
2022-11-29T08:41:08.025Z,94.74
2022-11-29T08:43:35.570Z,94.66
2022-11-29T08:46:02.949Z,94.53
2022-11-29T08:48:29.785Z,94.91
2022-11-29T08:50:56.670Z,94.53
2022-11-29T08:53:43.328Z,94.81
2022-11-29T08:56:41.622Z,94.52
2022-11-29T08:58:58.954Z,94.49
2022-11-29T09:01:26.055Z,94.77
2022-11-29T09:03:58.784Z,94.52
2022-11-29T09:06:28.611Z,94.74
2022-11-29T09:08:56.388Z,94.78
2022-11-29T09:11:25.766Z,94.93
2022-11-29T09:13:56.452Z,94.81
2022-11-29T09:16:26.542Z,94.91
2022-11-29T09:18:55.240Z,94.75
2022-11-29T09:21:24.321Z,94.98
2022-11-29T09:23:58.578Z,94.94
2022-11-29T09:26:28.645Z,94.97
2022-11-29T09:28:57.394Z,94.87
2022-11-29T09:31:24.260Z,94.84
2022-11-29T09:33:52.642Z,94.76
2022-11-29T09:36:26.575Z,94.90
2022-11-29T09:38:56.188Z,95.05
2022-11-29T09:41:38.381Z,95.29
2022-11-29T09:44:14.114Z,94.87
2022-11-29T09:47:03.995Z,94.68
2022-11-29T09:49:43.481Z,94.78
2022-11-29T09:52:21.622Z,95.01
2022-11-29T09:55:15.639Z,95.00
2022-11-29T09:57:43.835Z,95.22
2022-11-29T10:00:20.534Z,95.09
2022-11-29T10:03:00.762Z,95.05
2022-11-29T10:05:51.161Z,94.99
2022-11-29T10:08:50.565Z,95.03
2022-11-29T10:11:25.300Z,95.19
2022-11-29T10:13:59.197Z,95.14
2022-11-29T10:16:40.635Z,95.17
2022-11-29T10:19:15.126Z,95.39
2022-11-29T10:21:45.442Z,95.03
2022-11-29T10:24:18.339Z,95.23
2022-11-29T10:26:46.113Z,95.08
2022-11-29T10:29:15.105Z,95.01
2022-11-29T10:31:48.701Z,94.94
2022-11-29T10:34:21.786Z,95.16
2022-11-29T10:36:55.041Z,95.22
2022-11-29T10:39:44.173Z,95.46
2022-11-29T10:42:42.204Z,95.36
2022-11-29T10:45:15.030Z,95.34
2022-11-29T10:47:45.875Z,95.45
2022-11-29T10:50:34.918Z,94.94
2022-11-29T10:53:08.879Z,95.19
2022-11-29T10:55:45.172Z,95.28
2022-11-29T10:58:20.966Z,95.44
2022-11-29T11:01:07.104Z,95.16
2022-11-29T11:03:47.910Z,95.11
2022-11-29T11:06:20.753Z,94.96
2022-11-29T11:08:52.011Z,95.21
2022-11-29T11:11:31.550Z,95.29
2022-11-29T11:14:18.251Z,95.43
2022-11-29T11:16:44.841Z,95.52
2022-11-29T11:19:28.750Z,95.57
2022-11-29T11:21:58.038Z,95.37
2022-11-29T11:24:29.518Z,95.55
2022-11-29T11:26:57.319Z,95.49
2022-11-29T11:29:33.907Z,95.32
2022-11-29T11:32:00.857Z,95.56
2022-11-29T11:34:31.615Z,95.37
2022-11-29T11:37:14.431Z,95.11
2022-11-29T11:39:42.591Z,95.39
2022-11-29T11:42:31.113Z,95.09
2022-11-29T11:44:58.712Z,95.39
2022-11-29T11:47:28.703Z,95.56
2022-11-29T11:50:01.677Z,95.58
2022-11-29T11:52:52.201Z,95.54
2022-11-29T11:55:23.944Z,95.39
2022-11-29T11:58:07.829Z,95.51
2022-11-29T12:03:39.111Z,95.35
2022-11-29T12:06:05.767Z,95.23
2022-11-29T12:08:35.371Z,95.39
2022-11-29T12:11:07.751Z,95.40
2022-11-29T12:13:40.624Z,95.43
2022-11-29T12:16:16.437Z,95.26
2022-11-29T12:18:49.973Z,95.62
2022-11-29T12:21:23.659Z,95.38
2022-11-29T12:23:53.544Z,95.43
2022-11-29T12:26:55.758Z,95.38
2022-11-29T12:29:19.512Z,95.20
2022-11-29T12:31:58.261Z,95.41
2022-11-29T12:34:56.048Z,95.53
2022-11-29T12:37:35.669Z,95.17
2022-11-29T12:40:21.103Z,95.17
2022-11-29T12:43:03.669Z,94.86
2022-11-29T12:45:44.861Z,94.91
2022-11-29T12:48:37.437Z,95.06
2022-11-29T12:51:32.521Z,94.97
2022-11-29T12:54:22.250Z,95.07
2022-11-29T12:57:10.905Z,94.90
2022-11-29T12:59:46.872Z,94.97
2022-11-29T13:02:23.998Z,94.86
2022-11-29T13:05:12.484Z,95.08
2022-11-29T13:07:57.419Z,94.88
2022-11-29T13:10:33.896Z,95.16
2022-11-29T13:13:23.613Z,95.01
2022-11-29T13:15:59.840Z,95.14
2022-11-29T13:19:08.464Z,95.17
2022-11-29T13:21:52.975Z,95.11
2022-11-29T13:24:39.684Z,95.04
2022-11-29T13:27:15.416Z,95.09
2022-11-29T13:29:42.805Z,94.76
2022-11-29T13:32:37.151Z,94.90
2022-11-29T13:35:46.203Z,94.71
2022-11-29T13:38:28.657Z,94.96
2022-11-29T13:41:04.456Z,94.79
2022-11-29T13:44:12.952Z,94.99
2022-11-29T13:46:42.911Z,94.99
2022-11-29T13:49:42.539Z,95.07
2022-11-29T13:52:41.800Z,94.96
2022-11-29T13:55:11.689Z,95.25
2022-11-29T13:58:15.586Z,95.12
2022-11-29T14:00:44.307Z,95.04
2022-11-29T14:03:20.095Z,95.12
2022-11-29T14:05:53.805Z,95.15
2022-11-29T14:11:32.537Z,95.25
2022-11-29T14:14:07.752Z,95.05
2022-11-29T14:16:47.068Z,95.02
2022-11-29T14:19:30.083Z,95.16
2022-11-29T14:22:02.786Z,95.26
2022-11-29T14:24:32.153Z,95.43
2022-11-29T14:27:11.986Z,95.39
2022-11-29T14:29:51.932Z,95.31
2022-11-29T14:32:41.494Z,95.26
2022-11-29T14:35:11.304Z,95.44
2022-11-29T14:37:54.109Z,95.37
2022-11-29T14:40:48.246Z,95.19
2022-11-29T14:43:31.793Z,95.16
2022-11-29T14:46:13.943Z,95.53
2022-11-29T14:48:54.100Z,95.50
2022-11-29T14:51:27.277Z,95.53
2022-11-29T14:54:14.567Z,95.41
2022-11-29T14:56:44.041Z,95.47
2022-11-29T14:59:38.566Z,95.36
2022-11-29T15:02:19.329Z,95.49
2022-11-29T15:04:48.746Z,95.36
2022-11-29T15:07:19.112Z,95.68
2022-11-29T15:09:49.915Z,95.38
2022-11-29T15:12:21.133Z,95.58
2022-11-29T15:15:03.962Z,95.32
2022-11-29T15:18:00.487Z,95.76
2022-11-29T15:20:57.485Z,95.91
2022-11-29T15:23:24.341Z,95.97
2022-11-29T15:25:54.217Z,95.82
2022-11-29T15:28:24.326Z,95.50
2022-11-29T15:31:00.909Z,95.86
2022-11-29T15:33:28.491Z,95.72
2022-11-29T15:36:03.900Z,95.75
2022-11-29T15:38:42.640Z,96.03
2022-11-29T15:41:21.469Z,96.00
2022-11-29T15:43:53.237Z,95.94
2022-11-29T15:46:30.602Z,96.05
2022-11-29T15:49:17.573Z,96.02
2022-11-29T15:51:50.276Z,96.24
2022-11-29T15:54:19.543Z,96.07
2022-11-29T15:56:51.439Z,96.16
2022-11-29T15:59:30.403Z,96.12
2022-11-29T16:02:02.723Z,95.91
2022-11-29T16:04:30.754Z,96.31
2022-11-29T16:06:57.463Z,96.17
2022-11-29T16:09:41.976Z,96.25
2022-11-29T16:12:13.081Z,96.47
2022-11-29T16:14:57.845Z,96.29
2022-11-29T16:17:28.076Z,96.31
2022-11-29T16:20:25.467Z,96.44
2022-11-29T16:23:03.671Z,96.39
2022-11-29T16:25:37.384Z,96.48
2022-11-29T16:28:11.895Z,96.36
2022-11-29T16:30:41.896Z,96.60
2022-11-29T16:33:19.216Z,96.48
2022-11-29T16:35:46.989Z,96.42
2022-11-29T16:38:22.347Z,96.61
2022-11-29T16:41:24.142Z,96.69
2022-11-29T16:43:55.594Z,96.81
2022-11-29T16:46:25.139Z,96.71
2022-11-29T16:48:53.858Z,96.76
2022-11-29T16:51:39.335Z,96.60
2022-11-29T16:54:33.643Z,96.68
2022-11-29T16:57:05.861Z,96.65
2022-11-29T16:59:34.625Z,96.54
2022-11-29T17:02:01.443Z,96.74
2022-11-29T17:04:31.037Z,96.65
2022-11-29T17:06:58.941Z,96.64
2022-11-29T17:09:28.983Z,96.99
2022-11-29T17:11:59.157Z,96.79
2022-11-29T17:14:26.845Z,96.88
2022-11-29T17:16:54.218Z,96.69
2022-11-29T17:19:22.983Z,96.87
2022-11-29T17:21:51.445Z,96.83
2022-11-29T17:24:21.574Z,97.04
2022-11-29T17:26:49.559Z,96.95
2022-11-29T17:29:19.408Z,97.05
2022-11-29T17:31:47.017Z,96.99
2022-11-29T17:34:14.010Z,97.09
2022-11-29T17:36:41.059Z,97.05
2022-11-29T17:39:08.802Z,97.08
2022-11-29T17:41:36.025Z,97.10
2022-11-29T17:44:05.885Z,96.87
2022-11-29T17:46:35.736Z,96.97
2022-11-29T17:49:05.337Z,97.10
2022-11-29T17:54:22.902Z,97.26
2022-11-29T17:56:50.393Z,97.04
2022-11-29T17:59:17.193Z,97.17
2022-11-29T18:01:46.467Z,97.18
2022-11-29T18:04:13.259Z,97.15
2022-11-29T18:06:40.581Z,97.23
2022-11-29T18:09:09.986Z,97.25
2022-11-29T18:11:46.872Z,97.41
2022-11-29T18:14:18.308Z,97.32
2022-11-29T18:16:45.164Z,97.36
2022-11-29T18:19:14.653Z,97.26
2022-11-29T18:21:41.377Z,97.15
2022-11-29T18:24:08.761Z,97.32
2022-11-29T18:26:37.369Z,97.50
2022-11-29T18:29:05.471Z,97.40
2022-11-29T18:31:38.988Z,97.61
2022-11-29T18:34:08.799Z,97.53
2022-11-29T18:36:38.835Z,97.79
2022-11-29T18:39:08.326Z,97.67
2022-11-29T18:41:36.399Z,97.50
2022-11-29T18:44:08.491Z,97.50
2022-11-29T18:46:37.008Z,97.55
2022-11-29T18:49:06.247Z,97.60
2022-11-29T18:51:34.254Z,97.28
2022-11-29T18:54:01.381Z,97.38
2022-11-29T18:56:30.606Z,97.56
2022-11-29T18:59:09.802Z,97.54
2022-11-29T19:01:40.467Z,97.37
2022-11-29T19:04:09.703Z,97.44
2022-11-29T19:06:39.944Z,97.52
2022-11-29T19:09:13.558Z,97.44
2022-11-29T19:11:40.807Z,97.52
2022-11-29T19:14:13.571Z,97.57
2022-11-29T19:16:43.394Z,97.71
2022-11-29T19:19:10.960Z,97.59
2022-11-29T19:21:39.323Z,97.49
2022-11-29T19:24:13.081Z,97.61
2022-11-29T19:26:40.802Z,97.55
2022-11-29T19:29:07.505Z,97.45
2022-11-29T19:31:34.244Z,97.59
2022-11-29T19:34:00.942Z,97.71
2022-11-29T19:36:30.505Z,97.52
2022-11-29T19:39:00.201Z,97.74
2022-11-29T19:41:30.632Z,97.76
2022-11-29T19:43:59.543Z,97.63
2022-11-29T19:46:32.187Z,97.88
2022-11-29T19:48:59.868Z,97.60
2022-11-29T19:51:28.347Z,98.02
2022-11-29T19:54:01.167Z,97.81
2022-11-29T19:56:29.752Z,97.84
2022-11-29T19:58:57.011Z,97.88
2022-11-29T20:01:27.490Z,97.78
2022-11-29T20:03:55.263Z,97.75
2022-11-29T20:06:22.755Z,97.90
2022-11-29T20:08:49.506Z,97.75
2022-11-29T20:11:22.076Z,97.75
2022-11-29T20:13:59.960Z,97.73
2022-11-29T20:16:28.703Z,97.84
2022-11-29T20:18:56.744Z,98.01
2022-11-29T20:21:26.824Z,97.85
2022-11-29T20:23:55.628Z,97.99
2022-11-29T20:26:23.110Z,98.10
2022-11-29T20:28:50.644Z,98.32
2022-11-29T20:31:22.076Z,97.94
2022-11-29T20:33:50.676Z,97.93
2022-11-29T20:36:20.016Z,97.98
2022-11-29T20:39:11.704Z,97.80
2022-11-29T20:41:56.779Z,98.04
2022-11-29T20:44:37.060Z,97.95
2022-11-29T20:47:19.128Z,97.95
2022-11-29T20:49:46.742Z,98.06
2022-11-29T20:52:31.905Z,97.86
2022-11-29T20:54:58.615Z,97.92
2022-11-29T20:57:25.345Z,98.02
2022-11-29T20:59:52.100Z,98.08
2022-11-29T21:02:20.517Z,98.03
2022-11-29T21:04:47.786Z,98.09
2022-11-29T21:07:14.719Z,98.05
2022-11-29T21:09:41.563Z,98.02
2022-11-29T21:12:09.486Z,98.02
2022-11-29T21:14:36.777Z,98.15
2022-11-29T21:17:03.930Z,98.15
2022-11-29T21:19:30.957Z,98.24
2022-11-29T21:22:16.220Z,97.92
2022-11-29T21:25:13.872Z,98.18
2022-11-29T21:27:40.816Z,98.13
2022-11-29T21:30:20.625Z,97.98
2022-11-29T21:32:47.987Z,97.95
2022-11-29T21:35:15.465Z,97.95
2022-11-29T21:37:43.303Z,97.98
2022-11-29T21:40:12.473Z,98.15
2022-11-29T21:42:39.489Z,98.03
2022-11-29T21:45:13.463Z,98.10
2022-11-29T21:47:43.316Z,98.14
2022-11-29T21:50:11.709Z,98.15
2022-11-29T21:52:39.021Z,98.14
2022-11-29T21:55:05.976Z,98.04
2022-11-29T21:57:32.629Z,98.21
2022-11-29T21:59:59.340Z,98.05
2022-11-29T22:02:26.150Z,98.05
2022-11-29T22:04:52.951Z,97.97
2022-11-29T22:07:19.871Z,98.10
2022-11-29T22:09:46.600Z,98.08
2022-11-29T22:12:33.086Z,98.00
2022-11-29T22:15:00.160Z,98.00
2022-11-29T22:17:26.802Z,98.08
2022-11-29T22:19:54.703Z,98.05
2022-11-29T22:22:21.569Z,98.15
2022-11-29T22:24:48.587Z,98.10
2022-11-29T22:27:17.978Z,98.08
2022-11-29T22:29:44.890Z,97.88
2022-11-29T22:32:11.586Z,98.02
2022-11-29T22:34:38.304Z,98.34
2022-11-29T22:37:05.190Z,98.09
2022-11-29T22:39:32.031Z,98.18
2022-11-29T22:41:58.874Z,98.16
2022-11-29T22:44:25.639Z,98.10
2022-11-29T22:46:52.476Z,98.33
2022-11-29T22:49:19.394Z,98.15
2022-11-29T22:51:46.670Z,98.26
2022-11-29T22:54:16.890Z,98.15
2022-11-29T22:56:45.784Z,97.97
2022-11-29T22:59:12.950Z,98.16
2022-11-29T23:01:40.938Z,98.22
2022-11-29T23:04:09.867Z,98.38
2022-11-29T23:06:40.546Z,98.23
2022-11-29T23:09:11.555Z,98.18
2022-11-29T23:11:38.674Z,98.13
2022-11-29T23:14:05.502Z,98.13
2022-11-29T23:16:33.038Z,98.18
2022-11-29T23:19:00.556Z,97.94
2022-11-29T23:21:31.314Z,98.28
2022-11-29T23:24:00.347Z,98.21
2022-11-29T23:26:26.981Z,98.00
2022-11-29T23:28:54.149Z,98.24
2022-11-29T23:31:22.401Z,98.04
2022-11-29T23:33:49.233Z,98.04
2022-11-29T23:36:16.499Z,98.17
2022-11-29T23:38:43.277Z,97.98
2022-11-29T23:41:11.066Z,98.26
2022-11-29T23:43:40.006Z,98.12
2022-11-29T23:46:08.671Z,98.13
2022-11-29T23:48:35.413Z,98.13
2022-11-29T23:51:02.343Z,98.29
2022-11-29T23:53:29.183Z,98.13
2022-11-29T23:56:00.471Z,98.34
2022-11-29T23:58:28.577Z,98.26
